ImprimablePdf
Antwerp, 25/04/2010, BEL - DVV Antwerp Marathon & 10 Miles
Liste des rapports > Marathon - 21km
Recherche: Page: 1 2 [3] 4 5 6 7 8
1545 Entrées
 
Les réclamations ne sont plus acceptées, les résultats sont considérés comme définitifs.
Catégorie
PosNrNomAgeIOCEquipeTempsTkmMoy.RangNomLocalité
401.1093VERGAUWEN KWINTEN36BEL1:40:334:46 12.5967M35BUGGENHOUT
402.137VAN OOSTERWIJCK SVEN39BEL1:40:364:47 12.5868M35TIELT-WINGE
403.790DEMBREMENT STEPHANE41FRA1:40:374:47 12.5879M40BOULOGNE SUR MER
404.2100FBODEUX Magali28BEL1:40:384:47 12.584SEF
405.723VAN DEN HENDE KAREL49BEL1:40:404:47 12.57101M45WESTMALLE
406.326SMITS MICHIEL27BEL1:40:414:47 12.5773SEHBRASSCHAAT
407.2280VAN MOER DIRK43BEL1:40:434:47 12.5780M40NIEUWKERKEN-WAAS
408.2388BROECKHOVE Hobert37BEL1:40:464:47 12.5669M35SINT-AMANDSBERG
409.2038CRYNEN Jos49BEL1:40:464:47 12.56102M45
410.1011MORO TERRY45BEL1:40:474:47 12.56103M45SENEFFE
411.1533FRANCK PETER40BEL1:40:474:47 12.5681M40NIEL
412.2365SCHENCK TIM26BEL1:40:504:47 12.5574SEHKONINGSHOOIKT
413.1542SPRUYT DIRK46BEL1:40:524:47 12.55104M45WOMMELGEM
414.1112MICHIELSEN JEF63BEL1:41:124:48 12.515M60KALMTHOUT
415.2081MACBEATH Ian42BEL1:41:134:48 12.5182M40
416.871POPPE PATRICK52BEL1:41:154:48 12.5042M50BORSBEEK
417.2340BRIGNOLA GUY49BEL1:41:184:49 12.50105M45PULDERBOS
418.1438STEENPUT JORIS48BEL1:41:184:49 12.50106M45HERK-DE-STAD
419.2106VAN ASSCHE Yoerik33BEL1:41:234:49 12.4975SEH
420.1204BATTE ARNAUD34FRA1:41:264:49 12.4876SEHBOULOGNE SUR MER
421.941D'HERDE MARC45BEL1:41:274:49 12.48107M45NIVELLES
422.1125SMITS MARCO29BEL1:41:294:49 12.4777SEHEKEREN (ANTWERPEN)
423.1124VAN OERS TOM25BEL1:41:294:49 12.4778SEHBRASSCHAAT
424.1217VRANCKAERT EDDY47BEL1:41:314:49 12.47108M45LONDERZEEL
425.60MALVOISIN JEROME26BEL1:41:324:49 12.4779SEHTOURNAI
426.2105HELLEMANS Marc47BEL1:41:344:49 12.46109M45
427.696SMETS PATRICK48BEL1:41:354:49 12.46110M45BUGGENHOUT
428.2021ROOBROUCK Pascal44BEL1:41:394:50 12.4583M40
429.1359TAGHON KURT43BEL1:41:394:50 12.4584M40ZOMERGEM
430.436STANDAERT DOMINIQUE32BEL1:41:414:50 12.4580SEHTUBIZE
431.144NICKOLAUS Michael46BEL1:41:424:50 12.45111M45RHEINBACH
432.750VAN DE POL GUST50BEL1:41:434:50 12.4443M50OUD-TURNHOUT
433.1023WALRAVENS MARIO35BEL1:41:434:50 12.4470M35VILVOORDE
434.220DONNELLY DECLAN44IRE1:41:444:50 12.4485M40CELBRIDGE, CO. KILDARE
435.1231WINNEN PAUL55BEL1:41:454:50 12.449M55VELTEM-BEISEM
436.1169STORME DIRK52BEL1:41:454:50 12.4444M50ZWALM
437.1459MOREAU EDDY47BEL1:41:464:50 12.44112M45SIRAULT
438.1550CALLENS Rik53BEL1:41:464:50 12.4445M50
439.1195DELBART MICHEL51BEL1:41:484:50 12.4346M50ALKEN
440.2294ROLFS Stephan47BEL1:41:504:50 12.43113M45ANTWERPEN
441.2068NIJS Dirk49BEL1:41:534:50 12.42114M45
442.1106VERBIEST DRIES35BEL1:41:534:50 12.4271M35KESSEL-LO
443.1176DUIJSTERS THEO48BEL1:41:544:50 12.42115M45HASSELT
444.90DEWOLF FABRICE45FRA1:41:544:50 12.42116M45MARCQ EN BAROEUL
445.2110JANSEN RafBEL1:41:554:50 12.42-
446.2031SCHOLIERS Stan57BEL1:41:554:50 12.4210M55SCHELLE
447.644SMET DIRK34BEL1:41:554:50 12.4281SEHBORNEM
448.874DE GEEST TOMMY33BEL1:41:564:50 12.4282SEHWILRIJK
449.938PUNT KRIS39BEL1:41:564:50 12.4272M35WAARLOOS
450.246VAN GINNEKEN MARIO40BEL1:41:564:50 12.4286M40BEERSE
451.2480VAN LOON WERNER48BEL1:41:584:50 12.41117M45MORTSEL
452.1234MERCKX ROBBY38BEL1:41:594:51 12.4173M35GEEL
453.1404FGEERTS HILDE42BEL1:42:014:51 12.414F40LIER
454.2049BOSMANS Erik50BEL1:42:024:51 12.4147M50
455.57NOBEN PHILIP35BEL1:42:024:51 12.4174M35MORTSEL
456.2274VEKEMANS KRIS46BEL1:42:044:51 12.40118M45'S-GRAVENWEZEL
457.843FSIBBEL TOKE52NLD1:42:054:51 12.401F50AMSTERDAM
458.1036BAELE CARL41BEL1:42:054:51 12.4087M40BEERNEM
459.2473VAN HEMELDONCK Serge54BEL1:42:084:51 12.3948M50BERCHEM
460.2345JOOSEN TOM42BEL1:42:084:51 12.3988M40WUUSTWEZEL
461.718DAVI PAOLO29BEL1:42:094:51 12.3983SEHIXELLES
462.409WAUTERS WIM41BEL1:42:124:51 12.3989M40AALST
463.1522RUCKEBUSCH BART38BEL1:42:154:51 12.3875M35VLISSEGEM
464.2335FFARRUGGIA VERONIQUE38BEL1:42:164:51 12.382F35ANTWERPEN 1
465.204BAUWENS WARD33BEL1:42:194:51 12.3784SEHWOLVERTEM
466.1526DE NECKERE DIDIER42BEL1:42:204:52 12.3790M40KILLEM (FRANKRIJK)
467.1381KEYSERS PATRICK44BEL1:42:204:52 12.3791M40WESTMALLE
468.1191DARQUES GONTRAN39FRA1:42:214:52 12.3776M35NEUVILLE EN FERRAIN
469.1007WITHOFS JAN41BEL1:42:214:52 12.3792M40BILZEN
470.1529VAN BUYNDER KRIS35BEL1:42:224:52 12.3777M35WAASMUNSTER
471.897FDRUYTS LEENTJE40BEL1:42:234:52 12.365F40HOBOKEN
472.895COLONNA MARCO42BEL1:42:274:52 12.3693M40KOEKELBERG
473.1324BONTE THIBAULT20BEL1:42:314:52 12.3585SEHSINT-MARTENS-LATEM
474.1807COSSET PhilippeBEL1:42:344:52 12.34-
475.1200VAN SCHAP MICHAEL34BEL1:42:344:52 12.3486SEHMECHELEN
476.1059KENZI DJEMEL41BEL1:42:354:52 12.3494M40OEKENE
477.445KOMMER JOHN40NLD1:42:374:52 12.3495M40SCHOUWEN-DUIVELAND
478.904BOONEN CHRIS39BEL1:42:384:52 12.3378M35MEER
479.1181DE KOCK PAUL44BEL1:42:394:52 12.3396M40KALMTHOUT
480.2082VAN CAMP Dirk46BEL1:42:404:52 12.33119M45
481.1247VERELST PETER49BEL1:42:404:52 12.33120M45MORTSEL
482.520FGEEROMS GRIET48BEL1:42:464:53 12.327F45DUFFEL
483.939MATTHYS HERBERT46BEL1:42:474:53 12.32121M45KESSEL-LO
484.887BUDTS GUY34BEL1:42:474:53 12.3187SEHKALMTHOUT
485.2253ENGELEN DAVID40BEL1:42:544:53 12.3097M40KRUIBEKE
486.270LEDAINE TOM38BEL1:42:554:53 12.3079M35STERREBEEK
487.2382DENYFT ERIK41BEL1:42:554:53 12.3098M40SINT-MICHIELS
488.516FJANSSENS HEIDI35BEL1:42:574:53 12.303F35ICHTEGEM
489.1117DE ROCKERE MARC42BEL1:42:574:53 12.3099M40DEURNE (ANTWERPEN)
490.1193DEPAS MARCEL65BEL1:42:584:53 12.292M65SERAING
491.232PETERS JOSEF52GER1:42:594:53 12.2949M50KEVELAER
492.190VAN VAERENBERGH GEERT49BEL1:43:014:53 12.29122M45ASPELARE
493.2479GILBERT KEN30BEL1:43:084:54 12.2788SEHHULDENBERG
494.2478PAS OLIVIER31BEL1:43:094:54 12.2789SEHOVERIJSE
495.1037VAN DER BEKEN WIM46BEL1:43:114:54 12.27123M45EDEGEM
496.452SCHOLZ KARL54BEL1:43:134:54 12.2650M50ALKEN
497.534VERHEYEN JOHAN26BEL1:43:134:54 12.2690SEHKONTICH
498.566DE VISSCHER KRIS40BEL1:43:154:54 12.26100M40VOSSELAAR
499.1843NR 1843 XXX1:43:174:54 12.26-
500.854AMBROOS MARIO38BEL1:43:174:54 12.2680M35ANTWERPEN 2
501.2360BRITS PASCAL43BEL1:43:194:54 12.25101M40SINT-KATELIJNE-WAVER
502.503FERON RAYMOND41NLD1:43:214:54 12.25102M40BEEK
503.2254MICHIELS KRISTOF37BEL1:43:224:54 12.2581M35SCHOTEN
504.1121MUS HANS42BEL1:43:234:55 12.24103M40SCHELLE
505.1504STEENBEKE GEERT49BEL1:43:274:55 12.24124M45LOVENDEGEM
506.915VAN BRAGT PETER51BEL1:43:294:55 12.2351M50BERCHEM (ANTWERPEN)
507.1120JANSSENS CHRIS42BEL1:43:294:55 12.23104M40BRASSCHAAT
508.2351NAGELS WIM45BEL1:43:294:55 12.23125M45DUFFEL
509.902LIEFSOENS DIRK48BEL1:43:304:55 12.23126M45LUMMEN
510.1441DRAEYERS YANNICK19BEL1:43:314:55 12.2391SEHBRECHT
511.2418LAUWERS STEFAAN51BEL1:43:344:55 12.2252M50GENT
512.444AERTS DIRK54BEL1:43:354:55 12.2253M50ANTWERPEN 1
513.1245DEWILDE EDDY53BEL1:43:354:55 12.2254M50IEPER
514.1291VAN LAERHOVEN RUDY37BEL1:43:374:55 12.2282M35STABROEK
515.1151VAN GOOL DIETER39BEL1:43:374:55 12.2283M35MERKSEM (ANTWERPEN)
516.1005WIERING PAUL54NLD1:43:374:55 12.2255M50DIEMEN
517.423MENS JAN15NLD1:43:384:55 12.2192SEHAMSTERDAM
518.681MERKEN VALLY48BEL1:43:384:55 12.21127M45HOESELT
519.297LENAERTS BENJAMIN30BEL1:43:384:55 12.2193SEHTIENEN
520.2343BISSCHOPS PATRICK40BEL1:43:384:55 12.21105M40MORTSEL
521.535L'HOIR GAETAN33BEL1:43:394:55 12.2194SEHWAVRE
522.2301PEETERS KAREL54BEL1:43:394:55 12.2156M50TEMSE
523.2043SAMUEL Ronny ABEL1:43:394:55 12.21-
524.1086LOOS CHRIS43BEL1:43:394:55 12.21106M40HOEGAARDEN
525.1407PEETERS RAF39BEL1:43:404:55 12.2184M35MALLE
526.1138VETS RUDI46BEL1:43:414:55 12.21128M45BOECHOUT
527.2444THOLLEBEEK Luc50BEL1:43:424:55 12.2157M50GROBBENDONK
528.1536WAUTERS GUIDO50BEL1:43:424:55 12.2158M50AARTSELAAR
529.505BOMERE KURT42BEL1:43:424:55 12.21107M40AALTER
530.739SEMPELS JOERI28BEL1:43:424:55 12.2195SEHNIJLEN
531.495ZWINNEN SVEN46BEL1:43:434:55 12.21129M45MELSELE
532.2326RAINERI RENATO50BEL1:43:434:55 12.2059M50GENK
533.272NALES EMILE43NLD1:43:444:56 12.20108M40GRONINGEN
534.896DOMENIKOV BOBBY28NLD1:43:444:56 12.2096SEHBRUNSSUM
535.2377KEYGNAERT WIM39BEL1:43:444:56 12.2085M35GENT
536.2315MOSTMANS SAMUEL46BEL1:43:444:56 12.20130M45BEVEREN
537.1166MOSTMANS JOHAN47BEL1:43:444:56 12.20131M45WORTEL
538.703SCHNIERMANNI CONSTANT A.M.W.51POL1:43:454:56 12.2060M50SZCZECIN
539.926KENNES JAN47BEL1:43:454:56 12.20132M45NIJLEN
539.2063MEESTERS Karl31BEL1:43:454:56 12.2097SEH
539.583VERSCHAEVE BART35BEL1:43:454:56 12.2086M35PITTEM
542.211HILL JONATHAN40BEL1:43:454:56 12.20109M40BRUXELLES
543.158PEIRELINCK JAN54BEL1:43:454:56 12.2061M50MOLENSTEDE
544.1458PEETERS PATRICK42BEL1:43:454:56 12.20110M40GEEL
545.584DEPROOST HENK38BEL1:43:454:56 12.2087M35KORTEMARK
546.1817AUTESSERRE AlainBEL1:43:474:56 12.20-
547.249GRAVE EMMANUEL34FRA1:43:474:56 12.2098SEHCRETEIL
548.1177BROCKHOVEN NICO42BEL1:43:474:56 12.20111M40HAM
549.820HEUGHEBAERT PATRICK43BEL1:43:474:56 12.20112M40POPERINGE
550.1337SCHEPKENS YVES37BEL1:43:484:56 12.2088M35AS
551.884MAZZOTTA RAFFAELE28FRA1:43:484:56 12.2099SEHHALLUIN
552.660VAN DER LINDE ERWIN36NLD1:43:484:56 12.1989M35VLISSINGEN
553.1239REYNDERS RUDY48BEL1:43:484:56 12.19133M45LAAKDAL
554.1405VERSTICHEL BRECHT25BEL1:43:494:56 12.19100SEHGENT
555.2096SCHUEMMAEKERS Roby45BEL1:43:494:56 12.19134M45
556.776NELISSEN BURT43BEL1:43:504:56 12.19113M40HASSELT
557.1530VAN HECK FRANS55BEL1:43:504:56 12.1911M55DENDERMONDE
558.202TORFS ALAIN47BEL1:43:504:56 12.19135M45OPDORP
559.616WITTENBERG GEERT54BEL1:43:504:56 12.1962M50GERAARDSBERGEN
560.773PIPELEERS KRIS33BEL1:43:514:56 12.19101SEH'S GRAVENVOEREN
561.1805NELSEN Fernand60BEL1:43:524:56 12.196M60
562.836KUYPERS EDOUARD56BEL1:43:524:56 12.1912M55LOUVAIN-LA-NEUVE
563.1078IDRISSI MO58NLD1:43:524:56 12.1913M55HEEMSKERK
564.1085DE BEUKELAER JOS58NLD1:43:524:56 12.1914M55OSSENDRECHT
565.1816WYNANTS Laurent62BEL1:43:534:56 12.187M60
566.1354VAN DE GENACHTE EDDY43BEL1:43:544:56 12.18114M40EEKLO
567.1546DE CLIPPELEER Stefan32BEL1:43:544:56 12.18102SEH
568.1115BOOSTEN KOEN36BEL1:43:544:56 12.1890M35BREE
569.1225CARDOEN ALAIN45BEL1:43:554:56 12.18136M45OUTER
570.1500BILLET ANDRE50BEL1:43:574:56 12.1863M50WUUSTWEZEL
571.1098ALENS JAN39BEL1:43:584:56 12.1791M35ZOERSEL
572.2423NAUDTS RUUD23BEL1:43:584:56 12.17103SEHEVERGEM
573.1045BRACKE PIET44BEL1:43:584:56 12.17115M40SINT-AMANDSBERG
574.1307VAN DONINCK KOEN44BEL1:43:594:56 12.17116M40HOOGSTRATEN
575.2029DIAZ_GAVIER Patricio62BEL1:44:004:56 12.178M60
576.492DUBOIS DAVID43FRA1:44:004:56 12.17117M40WERVCQ SUD
577.1174HATTAS WERNER50BEL1:44:034:56 12.1764M50WOMMELGEM
578.275LESSELIERS MICHEL36BEL1:44:054:57 12.1692M35ANTWERPEN 1
579.179KENNEDY JOHN46BEL1:44:054:57 12.16137M45TEVRUEN
580.2099IMBERT Sven36BEL1:44:064:57 12.1693M35
581.2091CASSIERS MichelBEL1:44:074:57 12.16-
582.225SCHATTEMAN PATRICK58BEL1:44:074:57 12.1615M55DRONGEN
583.1031FELST NICOLE51BEL1:44:084:57 12.162F50KALMTHOUT
584.1029VANDER VEKEN PETER51BEL1:44:084:57 12.1565M50KALMTHOUT
585.2417DE VENDT KURT46BEL1:44:104:57 12.15138M45KAPRIJKE
586.963VANMALDEGEM MARC66BEL1:44:104:57 12.153M65OUDENAARDE
587.1126CHRISTIAENS THOMAS29BEL1:44:104:57 12.15104SEHGENT
588.1523BOSSANT SERGE42BEL1:44:114:57 12.15118M40RUISBROEK
589.730JANSSENS PIETER32BEL1:44:114:57 12.15105SEHKONINGSHOOIKT
590.149DE WULF FRANK48BEL1:44:114:57 12.15139M45LANDEGEM
591.2337D'ATTARDI OLIVIER39BEL1:44:134:57 12.1594M35HERMEE
591.1008TATNGA NGATCHA VALENTIN40BEL1:44:134:57 12.15119M40COURT-SAINT-ETIENNE
593.362WOLK FRANK34BEL1:44:144:57 12.14106SEHLIEGE
594.542GOETHALS GEERT45BEL1:44:144:57 12.14140M45EVERGEM
595.1135BEUZARD LUC58BEL1:44:154:57 12.1416M55DILBEEK
596.2046DE RAEDT PeterBEL1:44:154:57 12.14-
597.1497DALKOWSKI JEROEN29BEL1:44:174:57 12.14107SEHBLAASVELD
598.1283MARIEN SIGE39BEL1:44:184:57 12.1495M35HEMISKEM
599.891VERLINDEN WALTER38BEL1:44:204:57 12.1396M35HULSHOUT
600.966DE POOTER DIRK47BEL1:44:204:57 12.13141M45ITEGEM
DNF: abandon; DSQ: disqualifié; Vitesse en km/h
ChronoRace - Electronic Timing - www.chronorace.be